Latest Weather Observations for Narrabri

IDN60801

Issued at 12:02 pm EDT Sunday 26 March 2017 (issued every 30 minutes, with the page automatically refreshed every 10 minutes)

About weather observations | Map of weather stations | Latest weather observations for NSW | Other Formats
Station Details ID: 054038 Name: NARRABRI AIRPORT AWS Lat: -30.32 Lon: 149.83 Height: 229.02 m
Data from the previous 72 hours. | See also: Recent months at Narrabri
Date/Time
EDT
Temp
°C
App
Temp
°C
Dew
Point
°C
Rel
Hum
%
Delta-T
°C
Wind Press
QNH
hPa
Press
MSL
hPa
Rain since
9am
mm
Dir  Spd
km/h
Gust
km/h
Spd
kts
Gust
kts
26/12:00pm 28.9 28.6 19.2 55 6.3 N 19 26 10 14 1015.7 1014.6 -
26/11:30am 28.7 28.4 19.1 56 6.3 NNW 19 28 10 15 1016.0 1014.9 0.0
26/11:00am 27.6 27.2 18.9 59 5.6 N 19 28 10 15 1016.0 1014.9 0.0
26/10:30am 26.7 27.4 18.8 62 5.1 N 13 17 7 9 1016.6 1015.5 0.0
26/10:00am 25.8 27.7 19.7 69 4.0 ENE 9 13 5 7 1016.6 1015.5 0.0
26/09:30am 24.6 26.7 20.9 80 2.4 ENE 11 17 6 9 1016.5 1015.4 0.0
26/09:00am 23.0 24.5 19.8 82 2.1 SE 11 15 6 8 1016.4 1015.3 0.8
26/08:30am 22.1 22.8 19.6 86 1.6 SSE 15 20 8 11 1016.1 1015.1 0.8
26/08:00am 22.0 24.3 19.5 86 1.6 SSE 6 11 3 6 1015.2 1014.1 0.8
26/07:30am 20.9 22.7 18.7 87 1.4 ENE 7 7 4 4 1014.5 1013.4 0.8
26/07:00am 21.2 22.6 18.6 85 1.6 E 9 9 5 5 1014.5 1013.4 0.8
26/06:30am 21.7 23.3 19.1 85 1.7 SSE 9 13 5 7 1014.6 1013.5 0.8
26/06:00am 21.4 22.9 18.8 85 1.7 NE 9 13 5 7 1013.5 1012.4 0.8
26/05:30am 21.5 23.5 19.1 86 1.5 NE 7 11 4 6 1013.5 1012.4 0.8
26/05:00am 21.7 22.4 18.9 84 1.8 E 13 17 7 9 1013.6 1012.5 0.8
26/04:30am 22.4 21.9 18.6 79 2.4 ESE 19 28 10 15 1013.6 1012.5 0.8
26/04:00am 24.0 23.4 17.5 67 4.1 ESE 17 28 9 15 1013.8 1012.7 0.0
26/03:30am 25.7 23.3 16.5 56 5.7 NNE 24 32 13 17 1012.5 1011.4 0.0
26/03:00am 25.8 23.9 16.6 56 5.7 NNE 22 32 12 17 1012.5 1011.4 0.0
26/02:30am 24.6 23.3 16.8 62 4.9 NNE 19 22 10 12 1012.5 1011.4 0.0
26/02:00am 23.9 23.0 16.9 65 4.4 NNE 17 22 9 12 1012.7 1011.6 0.0
26/01:30am 24.2 23.4 17.2 65 4.4 NNE 17 20 9 11 1013.0 1011.9 0.0
26/01:00am 22.8 22.8 17.3 71 3.4 NNE 13 15 7 8 1013.3 1012.2 0.0
26/12:30am 23.3 23.4 17.5 70 3.6 ENE 13 15 7 8 1013.2 1012.1 0.0
26/12:00am 22.7 22.9 17.6 73 3.2 NE 13 15 7 8 1013.4 1012.3 0.0
 
Date/Time
EDT
Temp
°C
App
Temp
°C
Dew
Point
°C
Rel
Hum
%
Delta-T
°C
Wind Press
QNH
hPa
Press
MSL
hPa
Rain since
9am
mm
Dir  Spd
km/h
Gust
km/h
Spd
kts
Gust
kts
25/11:30pm 23.4 23.1 17.4 69 3.8 NE 15 17 8 9 1013.5 1012.4 0.0
25/11:00pm 23.3 23.1 17.7 71 3.5 NE 15 19 8 10 1013.6 1012.5 0.0
25/10:30pm 22.5 22.5 18.1 76 2.8 ENE 15 17 8 9 1013.7 1012.6 0.0
25/10:00pm 22.9 22.9 18.0 74 3.1 ENE 15 17 8 9 1013.9 1012.8 0.0
25/09:30pm 23.3 23.8 18.4 74 3.1 ENE 13 15 7 8 1014.0 1012.9 0.0
25/09:00pm 24.0 24.2 18.6 72 3.4 ENE 15 15 8 8 1013.6 1012.5 0.0
25/08:30pm 24.9 25.9 18.6 68 4.0 ENE 11 13 6 7 1013.3 1012.2 0.0
25/08:00pm 23.8 25.6 19.5 77 2.8 ENE 9 13 5 7 1013.0 1011.9 0.0
25/07:30pm 25.0 27.2 19.1 70 3.8 ESE 6 6 3 3 1012.9 1011.8 0.0
25/07:00pm 26.3 29.9 19.7 67 4.3 CALM 0 0 0 0 1012.7 1011.6 0.0
25/06:30pm 30.0 32.4 17.1 46 8.2 CALM 0 0 0 0 1012.6 1011.5 0.0
25/06:00pm 31.2 32.9 18.5 46 8.3 NW 7 11 4 6 1012.4 1011.3 0.0
25/05:30pm 31.1 31.8 17.0 42 9.0 W 9 11 5 6 1012.3 1011.2 0.0
25/05:00pm 30.8 31.6 18.2 47 8.2 NW 11 17 6 9 1012.3 1011.2 0.0
25/04:30pm 30.7 31.5 18.1 47 8.2 NW 11 15 6 8 1012.5 1011.4 0.0
25/04:00pm 31.1 31.4 17.8 45 8.6 NNW 13 19 7 10 1012.9 1011.8 0.0
25/03:30pm 31.3 30.5 17.9 44 8.7 NW 19 28 10 15 1013.2 1012.1 0.0
25/03:00pm 30.6 30.6 18.0 47 8.1 NNW 15 20 8 11 1013.5 1012.4 0.0
25/02:30pm 30.4 29.4 17.5 46 8.3 NW 19 24 10 13 1013.9 1012.8 0.0
25/02:00pm 30.2 29.9 17.3 46 8.2 NW 15 24 8 13 1014.3 1013.2 0.0
25/01:30pm 30.0 29.5 17.8 48 7.8 NW 17 24 9 13 1014.9 1013.8 0.0
25/01:00pm 28.8 28.7 17.0 49 7.5 NNW 13 20 7 11 1015.3 1014.2 0.0
25/12:30pm 28.6 27.9 16.5 48 7.6 NNW 15 22 8 12 1015.8 1014.7 0.0
25/12:00pm 28.5 28.8 18.0 53 6.7 NNW 13 24 7 13 1016.3 1015.2 0.0
25/11:30am 27.8 27.2 17.6 53 6.5 N 17 22 9 12 1016.6 1015.5 0.0
25/11:00am 25.5 27.5 16.9 59 5.4 NW 2 7 1 4 1016.9 1015.8 0.0
25/10:30am 24.6 25.6 16.3 60 5.1 SW 6 9 3 5 1017.1 1016.0 0.0
25/10:00am 23.5 24.3 15.8 62 4.7 WSW 6 13 3 7 1017.2 1016.1 0.0
25/09:30am 22.1 22.7 15.7 67 3.9 SSE 7 11 4 6 1017.0 1015.9 0.0
25/09:00am 21.0 21.4 15.3 70 3.4 SSE 7 11 4 6 1016.9 1015.8 0.0
25/08:30am 20.0 19.9 15.0 73 3.0 ESE 9 15 5 8 1016.6 1015.5 0.0
25/08:00am 18.9 17.5 14.6 76 2.5 SE 15 20 8 11 1016.5 1015.4 0.0
25/07:30am 18.1 17.0 14.4 79 2.2 SSE 13 20 7 11 1016.1 1015.1 0.0
25/07:00am 17.9 17.6 14.4 80 2.0 SSE 9 15 5 8 1015.9 1014.8 0.0
25/06:30am 18.2 17.2 14.5 79 2.2 SE 13 17 7 9 1015.5 1014.4 0.0
25/06:00am 18.4 18.1 14.5 78 2.3 ESE 9 13 5 7 1015.5 1014.4 0.0
25/05:30am 18.3 17.3 14.6 79 2.2 SE 13 19 7 10 1015.1 1014.0 0.0
25/05:00am 18.3 17.3 14.6 79 2.2 SE 13 17 7 9 1015.0 1013.9 0.0
25/04:30am 18.0 17.9 14.9 82 1.8 E 9 13 5 7 1014.8 1013.7 0.0
25/04:00am 18.3 19.8 15.6 84 1.6 SSE 2 7 1 4 1015.2 1014.1 0.0
25/03:30am 18.0 18.4 15.3 84 1.6 WSW 7 9 4 5 1015.2 1014.1 0.0
25/03:00am 18.3 18.6 15.0 81 1.9 NNE 7 11 4 6 1014.8 1013.7 0.0
25/02:30am 19.2 18.4 15.1 77 2.4 SSE 13 17 7 9 1014.9 1013.8 0.0
25/02:00am 19.6 18.6 15.5 77 2.4 SE 15 20 8 11 1014.9 1013.8 0.0
25/01:30am 19.7 18.4 15.8 78 2.3 SSE 17 20 9 11 1015.1 1014.0 0.0
25/01:00am 19.8 18.9 15.9 78 2.3 SSE 15 20 8 11 1015.3 1014.2 0.0
25/12:30am 20.5 19.7 16.1 76 2.7 SE 15 20 8 11 1015.3 1014.2 0.0
25/12:00am 20.9 19.4 16.3 75 2.8 SE 19 26 10 14 1015.5 1014.4 0.0
 
Date/Time
EDT
Temp
°C
App
Temp
°C
Dew
Point
°C
Rel
Hum
%
Delta-T
°C
Wind Press
QNH
hPa
Press
MSL
hPa
Rain since
9am
mm
Dir  Spd
km/h
Gust
km/h
Spd
kts
Gust
kts
24/11:30pm 20.9 19.8 16.3 75 2.8 SSE 17 24 9 13 1015.7 1014.6 0.0
24/11:00pm 21.4 19.8 16.4 73 3.1 SSE 20 28 11 15 1015.5 1014.4 0.0
24/10:30pm 21.8 20.2 16.5 72 3.2 SSE 20 28 11 15 1015.5 1014.4 0.0
24/10:00pm 21.9 20.4 16.4 71 3.4 SE 19 28 10 15 1015.6 1014.5 0.0
24/09:30pm 22.1 20.5 16.6 71 3.4 SSE 20 30 11 16 1015.4 1014.3 0.0
24/09:00pm 22.4 20.1 16.7 70 3.5 SSE 24 32 13 17 1015.1 1014.0 0.0
24/08:30pm 22.6 21.1 16.4 68 3.8 SSE 19 32 10 17 1014.9 1013.8 0.0
24/08:00pm 23.2 21.2 16.5 66 4.1 SSE 22 30 12 16 1014.7 1013.6 0.0
24/07:30pm 23.8 21.9 16.8 65 4.3 SSE 22 30 12 16 1014.5 1013.4 0.0
24/07:00pm 24.7 23.4 17.2 63 4.7 SSE 20 32 11 17 1014.4 1013.3 0.0
24/06:30pm 25.9 23.9 17.5 59 5.3 SE 24 33 13 18 1014.1 1013.0 0.0
24/06:00pm 27.0 24.7 17.5 56 6.0 SSE 26 39 14 21 1013.9 1012.8 0.0
24/05:30pm 27.7 26.2 17.8 54 6.3 SSE 22 32 12 17 1013.8 1012.7 0.0
24/05:00pm 28.1 27.2 18.2 55 6.4 SSE 20 32 11 17 1013.8 1012.7 0.0
24/04:30pm 28.2 27.3 18.3 55 6.4 SSE 20 33 11 18 1013.7 1012.6 0.0
24/04:00pm 28.0 26.9 18.7 57 6.0 SE 22 32 12 17 1013.9 1012.8 0.0
24/03:30pm 28.0 26.6 18.7 57 6.0 SSE 24 33 13 18 1014.3 1013.2 0.0
24/03:00pm 27.5 25.6 18.5 58 5.8 SSE 26 35 14 19 1014.7 1013.6 0.0
24/02:30pm 27.4 26.0 18.9 59 5.5 SSE 24 33 13 18 1015.0 1013.9 0.0
24/02:00pm 26.7 25.2 18.6 61 5.2 SSE 24 32 13 17 1015.5 1014.4 0.0
24/01:30pm 26.5 25.6 19.1 64 4.8 SE 22 32 12 17 1015.9 1014.8 0.0
24/01:00pm 25.9 24.4 18.6 64 4.7 SSE 24 32 13 17 1016.1 1015.1 0.0
24/12:30pm 25.2 23.6 18.4 66 4.3 SSE 24 37 13 20 1016.8 1015.7 0.0
24/12:00pm 26.0 25.4 18.9 65 4.6 SSE 20 28 11 15 1016.9 1015.8 0.0
24/11:30am 25.7 25.7 18.9 66 4.4 SSE 17 26 9 14 1017.3 1016.2 0.0
24/11:00am 24.5 24.5 18.0 67 4.1 SE 15 24 8 13 1017.4 1016.3 0.0
24/10:30am 22.9 22.0 17.8 73 3.2 SE 19 28 10 15 1017.5 1016.4 0.0
24/10:00am 22.6 22.1 17.7 74 3.1 SE 17 22 9 12 1017.5 1016.4 0.0
24/09:30am 22.2 21.8 18.0 77 2.6 SE 17 24 9 13 1017.3 1016.2 0.0
24/09:00am 22.0 21.2 18.0 78 2.5 SE 19 30 10 16 1017.0 1015.9 0.0
24/08:30am 21.7 20.2 17.7 78 2.5 SE 22 32 12 17 1016.6 1015.5 0.0
24/08:00am 21.4 20.4 17.6 79 2.4 SE 19 30 10 16 1016.1 1015.1 0.0
24/07:30am 20.7 19.7 17.5 82 2.0 SE 19 26 10 14 1015.8 1014.7 0.0
24/07:00am 20.6 19.5 17.4 82 2.0 SE 19 26 10 14 1015.4 1014.3 0.0
24/06:30am 20.7 20.1 17.5 82 2.0 SE 17 22 9 12 1014.7 1013.6 0.0
24/06:00am 21.4 22.0 17.8 80 2.2 SSE 11 13 6 7 1014.4 1013.3 0.0
24/05:30am 23.0 23.1 18.3 75 3.0 NNE 15 20 8 11 1014.1 1013.0 0.0
24/05:00am 23.2 22.6 18.5 75 3.0 NNE 19 24 10 13 1013.8 1012.7 0.0
24/04:30am 23.6 22.9 18.7 74 3.1 NNE 20 28 11 15 1013.9 1012.8 0.0
24/04:00am 23.9 22.6 19.0 74 3.1 NNE 24 35 13 19 1013.6 1012.5 0.0
24/03:30am 23.4 22.5 19.1 77 2.8 NNE 22 28 12 15 1013.7 1012.6 0.0
24/03:00am 21.2 23.8 18.4 84 1.8 NNE 2 6 1 3 1014.3 1013.2 0.0
24/02:30am 21.0 22.6 18.2 84 1.8 ENE 7 9 4 5 1014.5 1013.4 0.0
24/02:00am 21.2 24.2 18.4 84 1.8 CALM 0 0 0 0 1014.5 1013.4 0.0
24/01:30am 21.6 23.9 18.6 83 1.9 - 4 15 2 8 1014.8 1013.7 0.0
24/01:00am 21.9 24.1 18.3 80 2.3 SE 4 7 2 4 1014.3 1013.2 0.0
24/12:30am 22.6 25.2 18.4 77 2.7 E 2 7 1 4 1014.6 1013.5 0.0
24/12:00am 23.8 24.3 18.4 72 3.4 ESE 13 17 7 9 1014.7 1013.6 0.0
 
Date/Time
EDT
Temp
°C
App
Temp
°C
Dew
Point
°C
Rel
Hum
%
Delta-T
°C
Wind Press
QNH
hPa
Press
MSL
hPa
Rain since
9am
mm
Dir  Spd
km/h
Gust
km/h
Spd
kts
Gust
kts
23/11:30pm 23.8 23.7 18.7 73 3.3 SE 17 26 9 14 1014.9 1013.8 0.0
23/11:00pm 23.5 25.3 18.8 75 3.0 WNW 7 11 4 6 1015.3 1014.2 0.0
23/10:30pm 23.7 25.6 18.6 73 3.3 SE 6 9 3 5 1014.8 1013.7 0.0
23/10:00pm 23.8 25.0 19.1 75 3.0 ESE 11 17 6 9 1014.8 1013.7 0.0
23/09:30pm 23.5 24.3 19.0 76 2.9 E 13 15 7 8 1014.5 1013.4 0.0
23/09:00pm 25.1 26.2 18.8 68 4.0 E 11 13 6 7 1014.6 1013.5 0.0
23/08:30pm 26.2 27.2 18.6 63 4.9 SE 11 13 6 7 1014.5 1013.4 0.0
23/08:00pm 26.0 27.6 19.2 66 4.4 SE 9 11 5 6 1014.1 1013.0 0.0
23/07:30pm 25.9 28.1 19.3 67 4.3 ESE 6 7 3 4 1013.7 1012.6 0.0
23/07:00pm 27.7 29.7 19.2 60 5.5 ESE 7 9 4 5 1013.4 1012.3 0.0
23/06:30pm 29.2 30.4 18.3 51 7.0 E 9 11 5 6 1013.3 1012.2 0.0
23/06:00pm 30.6 32.7 18.0 47 8.1 E 4 9 2 5 1013.4 1012.3 0.0
23/05:30pm 30.8 32.7 18.5 47 8.0 ENE 6 11 3 6 1013.3 1012.2 0.0
23/05:00pm 30.2 31.2 18.6 49 7.6 E 11 17 6 9 1013.4 1012.3 0.0
23/04:30pm 30.4 31.3 18.5 49 7.7 ENE 11 17 6 9 1013.5 1012.4 0.0
23/04:00pm 31.0 32.7 19.4 50 7.7 WSW 9 15 5 8 1013.7 1012.6 0.0
23/03:30pm 29.9 31.8 19.0 52 7.1 N 7 11 4 6 1014.0 1012.9 0.0
23/03:00pm 30.1 31.4 18.5 49 7.5 SW 9 13 5 7 1014.3 1013.2 0.0
23/02:30pm 29.5 30.5 18.6 52 7.1 SSW 11 15 6 8 1014.7 1013.6 0.0
23/02:00pm 29.6 32.0 19.6 55 6.6 S 6 15 3 8 1015.3 1014.2 0.0
23/01:30pm 28.3 29.4 18.1 54 6.6 WSW 9 15 5 8 1015.7 1014.6 0.0
23/01:00pm 28.6 30.7 19.0 56 6.2 SSE 6 9 3 5 1016.1 1015.1 0.0
23/12:30pm 28.4 31.3 19.9 60 5.6 SSE 4 9 2 5 1016.7 1015.6 0.0

Other Formats:

Comma delimited format used in spreadsheet applications
http://www.bom.gov.au/fwo/IDN60801/IDN60801.95734.axf

JavaScript Object Notation format (JSON) in row-major order
http://www.bom.gov.au/fwo/IDN60801/IDN60801.95734.json